Myrtos — 9HA4299 — position and weather

sailwx.info

Track history (hours):
 
Tides and Currents Weather Stations Pressure Air Temp Water Temp Dewpoint Dewpoint Depression Visibility Wind Speed Wind Dir Waves Ship Positions

Myrtos

Last reported at 2018-Jan-02 16:04 UTC. Time now 2018-Feb-23 16:51 UTC.
Position N 35°50' W 025°29'.
Warning: this ship's position is 52 days out of date.

Length 244 m; draft 14.5 m.

Type: Ship (hazmat cat B). MMSI: 249592000.

Date/timePositionNaut miles runAvg speedWind from/ knotsBaromVisibWave heightAir tempDewpointWater temp
2018-Jan-02 16:04N 35°50' W 025°29'111.8
2018-Jan-02 16:00N 35°51' W 025°28'611.8
2018-Jan-02 15:30N 35°54' W 025°22'611.7
2018-Jan-02 15:00N 35°57' W 025°16'611.7
2018-Jan-02 14:30N 36°01' W 025°10'612.0
2018-Jan-02 14:01N 36°04' W 025°04'612.1
2018-Jan-02 13:30N 36°07' W 024°58'611.9
2018-Jan-02 13:00N 36°10' W 024°52'611.6
2018-Jan-02 12:30N 36°14' W 024°46'611.8
2018-Jan-02 12:01N 36°17' W 024°39'611.7
2018-Jan-02 11:30N 36°20' W 024°33'611.8
2018-Jan-02 11:00N 36°23' W 024°27'611.8
2018-Jan-02 10:30N 36°27' W 024°21'611.8
2018-Jan-02 10:01N 36°30' W 024°15'611.9
2018-Jan-02 09:31N 36°33' W 024°09'1312.6
2018-Jan-02 08:30N 36°40' W 023°56'612.9
2018-Jan-02 08:00N 36°44' W 023°49'713.2
2018-Jan-02 07:30N 36°47' W 023°42'612.8
2018-Jan-02 07:00N 36°51' W 023°36'612.7
2018-Jan-02 06:30N 36°54' W 023°29'613.0
2018-Jan-02 06:00N 36°58' W 023°22'2512.9
2018-Jan-02 04:03N 37°12' W 022°56'212.7
2018-Jan-02 03:56N 37°13' W 022°54'  
2017-Dec-28 19:17N 50°33' W 006°02'413.9
2017-Dec-28 18:59N 50°37' W 006°03'8613.3
2017-Dec-28 12:31N 52°03' W 005°49'213.8
2017-Dec-28 12:24N 52°05' W 005°48'714.1
2017-Dec-28 11:56N 52°11' W 005°45'614.6
2017-Dec-28 11:30N 52°17' W 005°42'715.1
2017-Dec-28 11:00N 52°24' W 005°39'10615.3
2017-Dec-28 04:03N 54°09' W 005°13'114.7
2017-Dec-28 04:00N 54°10' W 005°13'815.0
2017-Dec-28 03:30N 54°17' W 005°13'815.5
2017-Dec-28 03:00N 54°25' W 005°12'815.4
2017-Dec-28 02:30N 54°33' W 005°13'815.9
2017-Dec-28 02:00N 54°40' W 005°19'816.1
2017-Dec-28 01:30N 54°47' W 005°25'815.8
2017-Dec-28 01:00N 54°54' W 005°31'1414.8
2017-Dec-28 00:02N 55°06' W 005°45'014.7
2017-Dec-28 00:00N 55°07' W 005°46'714.3
2017-Dec-27 23:30N 55°12' W 005°54'713.3
2017-Dec-27 23:00N 55°17' W 006°02'612.5
2017-Dec-27 22:30N 55°22' W 006°09'2013.1
2017-Dec-27 20:59N 55°26' W 006°43'812.4
2017-Dec-27 20:22N 55°30' W 006°55'512.7
2017-Dec-27 19:59N 55°33' W 007°02'712.5
2017-Dec-27 19:26N 55°38' W 007°11'913.6
2017-Dec-27 18:44N 55°46' W 007°20'614.0
2017-Dec-27 18:18N 55°51' W 007°26'  
Track history (hours):
 
Tides and Currents Weather Stations Pressure Air Temp Water Temp Dewpoint Dewpoint Depression Visibility Wind Speed Wind Dir Waves Ship Positions

Myrtos

Last reported at 2018-Jan-02 16:04 UTC. Time now 2018-Feb-23 16:51 UTC.
Position N 35°50' W 025°29'.
Warning: this ship's position is 52 days out of date.

Length 244 m; draft 14.5 m.

Type: Ship (hazmat cat B). MMSI: 249592000.

Date/timePositionNaut miles runAvg speedWind from/ knotsBaromVisibWave heightAir tempDewpointWater temp
2018-Jan-02 16:04N 35°50' W 025°29'111.8
2018-Jan-02 16:00N 35°51' W 025°28'611.8
2018-Jan-02 15:30N 35°54' W 025°22'611.7
2018-Jan-02 15:00N 35°57' W 025°16'611.7
2018-Jan-02 14:30N 36°01' W 025°10'612.0
2018-Jan-02 14:01N 36°04' W 025°04'612.1
2018-Jan-02 13:30N 36°07' W 024°58'611.9
2018-Jan-02 13:00N 36°10' W 024°52'611.6
2018-Jan-02 12:30N 36°14' W 024°46'611.8
2018-Jan-02 12:01N 36°17' W 024°39'611.7
2018-Jan-02 11:30N 36°20' W 024°33'611.8
2018-Jan-02 11:00N 36°23' W 024°27'611.8
2018-Jan-02 10:30N 36°27' W 024°21'611.8
2018-Jan-02 10:01N 36°30' W 024°15'611.9
2018-Jan-02 09:31N 36°33' W 024°09'1312.6
2018-Jan-02 08:30N 36°40' W 023°56'612.9
2018-Jan-02 08:00N 36°44' W 023°49'713.2
2018-Jan-02 07:30N 36°47' W 023°42'612.8
2018-Jan-02 07:00N 36°51' W 023°36'612.7
2018-Jan-02 06:30N 36°54' W 023°29'613.0
2018-Jan-02 06:00N 36°58' W 023°22'2512.9
2018-Jan-02 04:03N 37°12' W 022°56'212.7
2018-Jan-02 03:56N 37°13' W 022°54'  
2017-Dec-28 19:17N 50°33' W 006°02'413.9
2017-Dec-28 18:59N 50°37' W 006°03'8613.3
2017-Dec-28 12:31N 52°03' W 005°49'213.8
2017-Dec-28 12:24N 52°05' W 005°48'714.1
2017-Dec-28 11:56N 52°11' W 005°45'614.6
2017-Dec-28 11:30N 52°17' W 005°42'715.1
2017-Dec-28 11:00N 52°24' W 005°39'10615.3
2017-Dec-28 04:03N 54°09' W 005°13'114.7
2017-Dec-28 04:00N 54°10' W 005°13'815.0
2017-Dec-28 03:30N 54°17' W 005°13'815.5
2017-Dec-28 03:00N 54°25' W 005°12'815.4
2017-Dec-28 02:30N 54°33' W 005°13'815.9
2017-Dec-28 02:00N 54°40' W 005°19'816.1
2017-Dec-28 01:30N 54°47' W 005°25'815.8
2017-Dec-28 01:00N 54°54' W 005°31'1414.8
2017-Dec-28 00:02N 55°06' W 005°45'014.7
2017-Dec-28 00:00N 55°07' W 005°46'714.3
2017-Dec-27 23:30N 55°12' W 005°54'713.3
2017-Dec-27 23:00N 55°17' W 006°02'612.5
2017-Dec-27 22:30N 55°22' W 006°09'2013.1
2017-Dec-27 20:59N 55°26' W 006°43'812.4
2017-Dec-27 20:22N 55°30' W 006°55'512.7
2017-Dec-27 19:59N 55°33' W 007°02'712.5
2017-Dec-27 19:26N 55°38' W 007°11'913.6
2017-Dec-27 18:44N 55°46' W 007°20'614.0
2017-Dec-27 18:18N 55°51' W 007°26'  

Dump ship's entire track history